sensor_id;sensor_type;location;lat;lon;timestamp;pressure;altitude;pressure_sealevel;temperature;humidity
19751;BME280;4663;49.120;9.730;2023-07-20T00:00:25;97784.78;;;20.32;63.67
19751;BME280;4663;49.120;9.730;2023-07-20T00:02:50;97782.13;;;20.44;64.56
19751;BME280;4663;49.120;9.730;2023-07-20T00:05:16;97781.56;;;20.54;63.73
19751;BME280;4663;49.120;9.730;2023-07-20T00:07:46;97783.16;;;20.62;63.53
19751;BME280;4663;49.120;9.730;2023-07-20T00:10:11;97777.75;;;20.24;63.38
19751;BME280;4663;49.120;9.730;2023-07-20T00:12:37;97802.97;;;20.01;65.76
19751;BME280;4663;49.120;9.730;2023-07-20T00:15:02;97794.19;;;20.17;64.45
19751;BME280;4663;49.120;9.730;2023-07-20T00:17:28;97802.13;;;20.00;65.23
19751;BME280;4663;49.120;9.730;2023-07-20T00:19:53;97807.34;;;20.21;64.52
19751;BME280;4663;49.120;9.730;2023-07-20T00:22:18;97797.66;;;20.25;63.31
19751;BME280;4663;49.120;9.730;2023-07-20T00:24:44;97807.94;;;20.41;63.82
19751;BME280;4663;49.120;9.730;2023-07-20T00:27:09;97817.00;;;20.35;64.70
19751;BME280;4663;49.120;9.730;2023-07-20T00:29:35;97804.09;;;19.93;64.79
19751;BME280;4663;49.120;9.730;2023-07-20T00:32:00;97797.22;;;19.90;64.90
19751;BME280;4663;49.120;9.730;2023-07-20T00:34:26;97807.34;;;19.83;65.13
19751;BME280;4663;49.120;9.730;2023-07-20T00:36:51;97805.47;;;20.02;64.76
19751;BME280;4663;49.120;9.730;2023-07-20T00:39:16;97818.06;;;19.52;66.89
19751;BME280;4663;49.120;9.730;2023-07-20T00:41:42;97820.03;;;19.71;66.63
19751;BME280;4663;49.120;9.730;2023-07-20T00:44:07;97820.25;;;19.69;65.84
19751;BME280;4663;49.120;9.730;2023-07-20T00:46:33;97807.81;;;19.80;65.53
19751;BME280;4663;49.120;9.730;2023-07-20T00:48:58;97808.09;;;19.46;65.71
19751;BME280;4663;49.120;9.730;2023-07-20T00:51:25;97804.91;;;19.75;65.96
19751;BME280;4663;49.120;9.730;2023-07-20T00:53:52;97806.28;;;19.65;65.42
19751;BME280;4663;49.120;9.730;2023-07-20T00:56:19;97818.22;;;19.13;67.13
19751;BME280;4663;49.120;9.730;2023-07-20T00:58:44;97806.34;;;19.59;66.24
19751;BME280;4663;49.120;9.730;2023-07-20T01:01:10;97811.94;;;19.64;64.92
19751;BME280;4663;49.120;9.730;2023-07-20T01:03:36;97812.22;;;19.30;65.55
19751;BME280;4663;49.120;9.730;2023-07-20T01:06:21;97809.91;;;19.52;64.96
19751;BME280;4663;49.120;9.730;2023-07-20T01:09:10;97818.16;;;19.20;65.99
19751;BME280;4663;49.120;9.730;2023-07-20T01:12:18;97816.72;;;19.18;67.09
19751;BME280;4663;49.120;9.730;2023-07-20T01:14:47;97831.44;;;18.64;67.15
19751;BME280;4663;49.120;9.730;2023-07-20T01:17:12;97824.56;;;19.00;66.55
19751;BME280;4663;49.120;9.730;2023-07-20T01:19:38;97822.53;;;18.89;66.96
19751;BME280;4663;49.120;9.730;2023-07-20T01:22:18;97829.97;;;18.68;67.47
19751;BME280;4663;49.120;9.730;2023-07-20T01:25:07;97826.50;;;18.54;68.61
19751;BME280;4663;49.120;9.730;2023-07-20T01:32:54;97829.44;;;18.92;67.06
19751;BME280;4663;49.120;9.730;2023-07-20T01:35:23;97824.94;;;18.79;67.03
19751;BME280;4663;49.120;9.730;2023-07-20T01:37:50;97822.81;;;18.81;67.10
19751;BME280;4663;49.120;9.730;2023-07-20T01:40:17;97821.22;;;18.59;67.10
19751;BME280;4663;49.120;9.730;2023-07-20T01:42:45;97826.44;;;18.61;66.62
19751;BME280;4663;49.120;9.730;2023-07-20T01:45:11;97834.75;;;18.27;68.26
19751;BME280;4663;49.120;9.730;2023-07-20T01:47:37;97832.81;;;18.41;68.91
19751;BME280;4663;49.120;9.730;2023-07-20T01:50:02;97825.72;;;18.40;68.27
19751;BME280;4663;49.120;9.730;2023-07-20T01:52:28;97825.22;;;18.11;69.21
19751;BME280;4663;49.120;9.730;2023-07-20T01:54:53;97826.38;;;18.35;68.66
19751;BME280;4663;49.120;9.730;2023-07-20T01:57:18;97824.31;;;18.24;68.76
19751;BME280;4663;49.120;9.730;2023-07-20T01:59:44;97820.66;;;17.98;68.85
19751;BME280;4663;49.120;9.730;2023-07-20T02:02:09;97836.50;;;18.08;69.88
19751;BME280;4663;49.120;9.730;2023-07-20T02:04:35;97834.81;;;18.14;70.20
19751;BME280;4663;49.120;9.730;2023-07-20T02:07:01;97831.81;;;18.29;69.26
19751;BME280;4663;49.120;9.730;2023-07-20T02:09:26;97837.78;;;17.92;70.09
19751;BME280;4663;49.120;9.730;2023-07-20T02:11:51;97833.63;;;17.89;69.58
19751;BME280;4663;49.120;9.730;2023-07-20T02:14:17;97833.44;;;17.64;70.40
19751;BME280;4663;49.120;9.730;2023-07-20T02:16:42;97836.53;;;17.81;70.49
19751;BME280;4663;49.120;9.730;2023-07-20T02:19:07;97834.38;;;18.17;68.88
19751;BME280;4663;49.120;9.730;2023-07-20T02:21:33;97835.69;;;18.01;69.36
19751;BME280;4663;49.120;9.730;2023-07-20T02:23:58;97838.41;;;17.80;70.77
19751;BME280;4663;49.120;9.730;2023-07-20T02:26:24;97832.00;;;17.54;70.70
19751;BME280;4663;49.120;9.730;2023-07-20T02:28:49;97836.75;;;17.72;71.01
19751;BME280;4663;49.120;9.730;2023-07-20T02:31:14;97837.81;;;17.58;71.82
19751;BME280;4663;49.120;9.730;2023-07-20T02:33:40;97847.00;;;17.57;71.63
19751;BME280;4663;49.120;9.730;2023-07-20T02:36:05;97836.13;;;17.84;70.14
19751;BME280;4663;49.120;9.730;2023-07-20T02:38:30;97832.34;;;17.92;69.87
19751;BME280;4663;49.120;9.730;2023-07-20T02:40:56;97842.56;;;18.03;71.18
19751;BME280;4663;49.120;9.730;2023-07-20T02:43:21;97831.34;;;17.72;70.77
19751;BME280;4663;49.120;9.730;2023-07-20T02:45:46;97840.69;;;18.04;70.07
19751;BME280;4663;49.120;9.730;2023-07-20T02:48:12;97837.75;;;18.12;69.96
19751;BME280;4663;49.120;9.730;2023-07-20T02:50:37;97841.50;;;18.11;69.64
19751;BME280;4663;49.120;9.730;2023-07-20T02:53:03;97849.25;;;18.01;70.39
19751;BME280;4663;49.120;9.730;2023-07-20T02:55:28;97850.31;;;17.79;71.11
19751;BME280;4663;49.120;9.730;2023-07-20T02:57:53;97847.81;;;17.91;70.57
19751;BME280;4663;49.120;9.730;2023-07-20T03:00:19;97852.81;;;17.94;69.54
19751;BME280;4663;49.120;9.730;2023-07-20T03:02:48;97845.28;;;17.76;69.85
19751;BME280;4663;49.120;9.730;2023-07-20T03:05:14;97850.69;;;17.83;69.81
19751;BME280;4663;49.120;9.730;2023-07-20T03:07:39;97855.34;;;17.48;71.25
19751;BME280;4663;49.120;9.730;2023-07-20T03:10:06;97857.44;;;17.60;70.45
19751;BME280;4663;49.120;9.730;2023-07-20T03:12:34;97853.69;;;17.27;71.04
19751;BME280;4663;49.120;9.730;2023-07-20T03:15:01;97864.53;;;17.47;69.99
19751;BME280;4663;49.120;9.730;2023-07-20T03:17:26;97862.63;;;17.68;69.93
19751;BME280;4663;49.120;9.730;2023-07-20T03:19:51;97863.28;;;17.23;70.48
19751;BME280;4663;49.120;9.730;2023-07-20T03:22:17;97868.28;;;17.53;70.20
19751;BME280;4663;49.120;9.730;2023-07-20T03:24:42;97868.69;;;17.30;70.56
19751;BME280;4663;49.120;9.730;2023-07-20T03:27:08;97873.28;;;17.43;70.33
19751;BME280;4663;49.120;9.730;2023-07-20T03:29:33;97882.47;;;17.42;70.70
19751;BME280;4663;49.120;9.730;2023-07-20T03:31:58;97880.81;;;17.47;70.33
19751;BME280;4663;49.120;9.730;2023-07-20T03:34:24;97881.63;;;17.62;69.97
19751;BME280;4663;49.120;9.730;2023-07-20T03:36:50;97876.59;;;17.85;70.46
19751;BME280;4663;49.120;9.730;2023-07-20T03:39:15;97881.81;;;17.46;70.65
19751;BME280;4663;49.120;9.730;2023-07-20T03:41:41;97880.78;;;17.68;70.28
19751;BME280;4663;49.120;9.730;2023-07-20T03:44:06;97882.03;;;17.65;70.67
19751;BME280;4663;49.120;9.730;2023-07-20T03:46:31;97890.38;;;17.64;70.69
19751;BME280;4663;49.120;9.730;2023-07-20T03:48:59;97884.72;;;17.72;70.37
19751;BME280;4663;49.120;9.730;2023-07-20T03:51:24;97890.81;;;17.67;70.67
19751;BME280;4663;49.120;9.730;2023-07-20T03:53:50;97887.25;;;17.73;70.34
19751;BME280;4663;49.120;9.730;2023-07-20T03:56:15;97890.16;;;17.79;69.36
19751;BME280;4663;49.120;9.730;2023-07-20T03:58:40;97896.03;;;17.48;70.06
19751;BME280;4663;49.120;9.730;2023-07-20T04:01:06;97900.41;;;17.50;70.32
19751;BME280;4663;49.120;9.730;2023-07-20T04:03:32;97891.81;;;17.26;71.00
19751;BME280;4663;49.120;9.730;2023-07-20T04:05:57;97898.31;;;17.38;71.29
19751;BME280;4663;49.120;9.730;2023-07-20T04:08:23;97894.13;;;17.29;71.14
19751;BME280;4663;49.120;9.730;2023-07-20T04:10:50;97899.97;;;17.53;70.48
19751;BME280;4663;49.120;9.730;2023-07-20T04:13:15;97907.88;;;17.34;71.22
19751;BME280;4663;49.120;9.730;2023-07-20T04:15:42;97911.44;;;17.75;71.81
19751;BME280;4663;49.120;9.730;2023-07-20T04:18:07;97900.09;;;18.39;70.58
19751;BME280;4663;49.120;9.730;2023-07-20T04:20:32;97894.69;;;18.85;68.87
19751;BME280;4663;49.120;9.730;2023-07-20T04:22:58;97900.66;;;19.33;66.93
19751;BME280;4663;49.120;9.730;2023-07-20T04:25:23;97900.34;;;19.73;65.84
19751;BME280;4663;49.120;9.730;2023-07-20T04:27:48;97907.97;;;20.09;64.95
19751;BME280;4663;49.120;9.730;2023-07-20T04:30:16;97907.44;;;20.44;64.08
19751;BME280;4663;49.120;9.730;2023-07-20T04:32:44;97907.13;;;20.83;63.00
19751;BME280;4663;49.120;9.730;2023-07-20T04:35:11;97909.13;;;21.37;62.42
19751;BME280;4663;49.120;9.730;2023-07-20T04:37:36;97912.63;;;21.68;61.60
19751;BME280;4663;49.120;9.730;2023-07-20T04:40:01;97906.88;;;21.89;60.71
19751;BME280;4663;49.120;9.730;2023-07-20T04:42:27;97900.91;;;22.16;60.39
19751;BME280;4663;49.120;9.730;2023-07-20T04:44:52;97902.28;;;22.54;59.71
19751;BME280;4663;49.120;9.730;2023-07-20T04:47:18;97905.59;;;22.56;58.61
19751;BME280;4663;49.120;9.730;2023-07-20T04:49:43;97911.50;;;22.77;58.52
19751;BME280;4663;49.120;9.730;2023-07-20T04:52:09;97900.31;;;23.08;57.43
19751;BME280;4663;49.120;9.730;2023-07-20T04:54:34;97906.38;;;23.39;57.58
19751;BME280;4663;49.120;9.730;2023-07-20T04:56:59;97900.97;;;23.79;56.70
19751;BME280;4663;49.120;9.730;2023-07-20T04:59:25;97909.31;;;24.23;56.16
19751;BME280;4663;49.120;9.730;2023-07-20T05:01:50;97913.47;;;24.26;56.22
19751;BME280;4663;49.120;9.730;2023-07-20T05:04:15;97905.09;;;24.55;56.11
19751;BME280;4663;49.120;9.730;2023-07-20T05:06:41;97902.66;;;24.36;55.49
19751;BME280;4663;49.120;9.730;2023-07-20T05:09:06;97903.00;;;24.23;55.59
19751;BME280;4663;49.120;9.730;2023-07-20T05:11:32;97910.72;;;24.26;56.34
19751;BME280;4663;49.120;9.730;2023-07-20T05:13:58;97907.31;;;23.62;55.91
19751;BME280;4663;49.120;9.730;2023-07-20T05:16:23;97903.59;;;22.93;57.30
19751;BME280;4663;49.120;9.730;2023-07-20T05:18:48;97906.34;;;21.68;59.16
19751;BME280;4663;49.120;9.730;2023-07-20T05:21:14;97912.34;;;21.03;60.85
19751;BME280;4663;49.120;9.730;2023-07-20T05:23:39;97907.59;;;21.29;60.80
19751;BME280;4663;49.120;9.730;2023-07-20T05:26:05;97912.09;;;21.24;61.05
19751;BME280;4663;49.120;9.730;2023-07-20T05:28:31;97914.28;;;20.84;61.57
19751;BME280;4663;49.120;9.730;2023-07-20T05:30:56;97903.38;;;21.57;60.43
19751;BME280;4663;49.120;9.730;2023-07-20T05:33:24;97900.19;;;22.20;59.28
19751;BME280;4663;49.120;9.730;2023-07-20T05:35:50;97907.31;;;22.86;58.40
19751;BME280;4663;49.120;9.730;2023-07-20T05:38:15;97909.84;;;22.76;59.00
19751;BME280;4663;49.120;9.730;2023-07-20T05:40:41;97903.69;;;23.27;57.91
19751;BME280;4663;49.120;9.730;2023-07-20T05:43:08;97906.63;;;23.08;57.63
19751;BME280;4663;49.120;9.730;2023-07-20T05:45:33;97911.06;;;22.56;58.99
19751;BME280;4663;49.120;9.730;2023-07-20T05:47:58;97898.31;;;23.32;57.64
19751;BME280;4663;49.120;9.730;2023-07-20T05:50:24;97910.19;;;23.38;57.65
19751;BME280;4663;49.120;9.730;2023-07-20T05:52:52;97913.69;;;23.50;57.66
19751;BME280;4663;49.120;9.730;2023-07-20T05:55:18;97913.84;;;24.12;57.08
19751;BME280;4663;49.120;9.730;2023-07-20T05:57:43;97922.53;;;24.49;57.04
19751;BME280;4663;49.120;9.730;2023-07-20T06:00:09;97916.59;;;25.02;55.99
19751;BME280;4663;49.120;9.730;2023-07-20T06:02:35;97912.34;;;24.66;55.68
19751;BME280;4663;49.120;9.730;2023-07-20T06:05:00;97915.16;;;23.93;56.08
19751;BME280;4663;49.120;9.730;2023-07-20T06:07:25;97913.50;;;24.71;56.10
19751;BME280;4663;49.120;9.730;2023-07-20T06:09:51;97916.38;;;25.31;54.99
19751;BME280;4663;49.120;9.730;2023-07-20T06:12:16;97912.25;;;25.06;55.28
19751;BME280;4663;49.120;9.730;2023-07-20T06:14:42;97907.47;;;25.84;53.37
19751;BME280;4663;49.120;9.730;2023-07-20T06:17:07;97913.78;;;25.47;53.87
19751;BME280;4663;49.120;9.730;2023-07-20T06:19:33;97920.59;;;25.16;55.27
19751;BME280;4663;49.120;9.730;2023-07-20T06:21:58;97904.66;;;24.63;54.58
19751;BME280;4663;49.120;9.730;2023-07-20T06:24:23;97924.13;;;25.72;54.26
19751;BME280;4663;49.120;9.730;2023-07-20T06:26:49;97908.03;;;24.93;53.99
19751;BME280;4663;49.120;9.730;2023-07-20T06:29:14;97901.66;;;24.87;53.92
19751;BME280;4663;49.120;9.730;2023-07-20T06:31:39;97918.00;;;25.04;55.53
19751;BME280;4663;49.120;9.730;2023-07-20T06:34:05;97897.88;;;25.87;52.17
19751;BME280;4663;49.120;9.730;2023-07-20T06:36:30;97902.69;;;25.69;53.41
19751;BME280;4663;49.120;9.730;2023-07-20T06:38:56;97901.78;;;26.39;52.41
19751;BME280;4663;49.120;9.730;2023-07-20T06:41:21;97890.09;;;26.11;51.26
19751;BME280;4663;49.120;9.730;2023-07-20T06:43:47;97898.72;;;27.05;51.15
19751;BME280;4663;49.120;9.730;2023-07-20T06:46:13;97898.44;;;27.06;50.65
19751;BME280;4663;49.120;9.730;2023-07-20T06:48:38;97903.06;;;26.21;51.40
19751;BME280;4663;49.120;9.730;2023-07-20T06:51:03;97905.69;;;27.49;50.27
19751;BME280;4663;49.120;9.730;2023-07-20T06:53:30;97899.06;;;28.07;50.04
19751;BME280;4663;49.120;9.730;2023-07-20T06:55:55;97904.84;;;27.85;49.43
19751;BME280;4663;49.120;9.730;2023-07-20T06:58:23;97909.78;;;27.20;50.46
19751;BME280;4663;49.120;9.730;2023-07-20T07:00:49;97914.47;;;28.19;50.33
19751;BME280;4663;49.120;9.730;2023-07-20T07:03:14;97912.81;;;28.12;49.53
19751;BME280;4663;49.120;9.730;2023-07-20T07:05:40;97907.66;;;26.53;50.38
19751;BME280;4663;49.120;9.730;2023-07-20T07:08:05;97906.41;;;26.92;50.67
19751;BME280;4663;49.120;9.730;2023-07-20T07:10:31;97910.34;;;27.22;50.47
19751;BME280;4663;49.120;9.730;2023-07-20T07:12:56;97892.75;;;26.44;50.37
19751;BME280;4663;49.120;9.730;2023-07-20T07:15:22;97893.53;;;26.39;50.78
19751;BME280;4663;49.120;9.730;2023-07-20T07:17:47;97901.47;;;25.54;51.68
19751;BME280;4663;49.120;9.730;2023-07-20T07:20:13;97923.00;;;26.01;52.42
19751;BME280;4663;49.120;9.730;2023-07-20T07:22:38;97904.66;;;26.60;51.91
19751;BME280;4663;49.120;9.730;2023-07-20T07:25:04;97894.00;;;26.90;51.04
19751;BME280;4663;49.120;9.730;2023-07-20T07:27:30;97908.97;;;26.51;52.02
19751;BME280;4663;49.120;9.730;2023-07-20T07:29:55;97891.38;;;26.52;50.55
19751;BME280;4663;49.120;9.730;2023-07-20T07:32:20;97903.22;;;26.52;51.83
19751;BME280;4663;49.120;9.730;2023-07-20T07:34:46;97904.56;;;27.71;50.70
19751;BME280;4663;49.120;9.730;2023-07-20T07:37:13;97877.75;;;28.29;48.11
19751;BME280;4663;49.120;9.730;2023-07-20T07:39:38;97889.69;;;28.03;48.78
19751;BME280;4663;49.120;9.730;2023-07-20T07:42:05;97884.41;;;28.33;48.49
19751;BME280;4663;49.120;9.730;2023-07-20T07:44:30;97889.44;;;27.94;48.34
19751;BME280;4663;49.120;9.730;2023-07-20T07:46:56;97891.94;;;27.75;49.15
19751;BME280;4663;49.120;9.730;2023-07-20T07:49:21;97893.75;;;28.42;49.09
19751;BME280;4663;49.120;9.730;2023-07-20T07:51:46;97886.03;;;26.88;49.62
19751;BME280;4663;49.120;9.730;2023-07-20T07:54:12;97893.66;;;28.63;49.17
19751;BME280;4663;49.120;9.730;2023-07-20T07:56:37;97894.28;;;28.29;49.87
19751;BME280;4663;49.120;9.730;2023-07-20T07:59:03;97886.28;;;26.81;50.52
19751;BME280;4663;49.120;9.730;2023-07-20T08:01:28;97884.47;;;27.44;49.33
19751;BME280;4663;49.120;9.730;2023-07-20T08:03:54;97880.00;;;28.93;48.65
19751;BME280;4663;49.120;9.730;2023-07-20T08:06:20;97881.69;;;28.17;48.70
19751;BME280;4663;49.120;9.730;2023-07-20T08:08:45;97884.47;;;27.81;48.61
19751;BME280;4663;49.120;9.730;2023-07-20T08:11:10;97900.16;;;27.70;50.11
19751;BME280;4663;49.120;9.730;2023-07-20T08:13:36;97896.72;;;26.15;51.42
19751;BME280;4663;49.120;9.730;2023-07-20T08:16:01;97904.72;;;25.46;53.08
19751;BME280;4663;49.120;9.730;2023-07-20T08:18:30;97901.53;;;24.77;53.48
19751;BME280;4663;49.120;9.730;2023-07-20T08:20:56;97901.94;;;25.18;53.29
19751;BME280;4663;49.120;9.730;2023-07-20T08:23:21;97902.22;;;24.45;54.72
19751;BME280;4663;49.120;9.730;2023-07-20T08:25:47;97876.00;;;24.99;52.70
19751;BME280;4663;49.120;9.730;2023-07-20T08:28:14;97891.59;;;25.26;53.32
19751;BME280;4663;49.120;9.730;2023-07-20T08:30:44;97884.22;;;24.99;53.27
19751;BME280;4663;49.120;9.730;2023-07-20T08:33:12;97877.00;;;25.48;52.40
19751;BME280;4663;49.120;9.730;2023-07-20T08:35:38;97885.88;;;26.52;51.95
19751;BME280;4663;49.120;9.730;2023-07-20T08:38:04;97868.50;;;27.15;50.24
19751;BME280;4663;49.120;9.730;2023-07-20T08:40:34;97875.69;;;27.89;49.21
19751;BME280;4663;49.120;9.730;2023-07-20T08:43:00;97863.41;;;26.06;50.68
19751;BME280;4663;49.120;9.730;2023-07-20T08:45:27;97877.50;;;26.26;51.43
19751;BME280;4663;49.120;9.730;2023-07-20T08:47:56;97880.53;;;25.81;51.93
19751;BME280;4663;49.120;9.730;2023-07-20T08:50:25;97877.75;;;25.76;51.74
19751;BME280;4663;49.120;9.730;2023-07-20T08:52:52;97867.53;;;25.05;51.47
19751;BME280;4663;49.120;9.730;2023-07-20T08:55:19;97871.91;;;26.58;51.48
19751;BME280;4663;49.120;9.730;2023-07-20T08:57:46;97879.50;;;27.57;50.02
19751;BME280;4663;49.120;9.730;2023-07-20T09:00:13;97875.13;;;27.87;49.21
19751;BME280;4663;49.120;9.730;2023-07-20T09:02:40;97868.19;;;28.05;48.40
19751;BME280;4663;49.120;9.730;2023-07-20T09:05:08;97881.19;;;27.32;50.02
19751;BME280;4663;49.120;9.730;2023-07-20T09:07:35;97860.69;;;26.76;49.52
19751;BME280;4663;49.120;9.730;2023-07-20T09:10:01;97854.34;;;26.75;48.52
19751;BME280;4663;49.120;9.730;2023-07-20T09:12:32;97865.28;;;25.96;49.83
19751;BME280;4663;49.120;9.730;2023-07-20T09:15:00;97860.66;;;26.60;49.09
19751;BME280;4663;49.120;9.730;2023-07-20T09:17:26;97866.84;;;27.25;48.62
19751;BME280;4663;49.120;9.730;2023-07-20T09:19:51;97866.28;;;28.06;48.22
19751;BME280;4663;49.120;9.730;2023-07-20T09:22:17;97857.75;;;27.08;48.19
19751;BME280;4663;49.120;9.730;2023-07-20T09:24:43;97872.00;;;25.77;49.85
19751;BME280;4663;49.120;9.730;2023-07-20T09:27:09;97869.91;;;26.43;49.10
19751;BME280;4663;49.120;9.730;2023-07-20T09:29:53;97892.75;;;24.75;51.88
19751;BME280;4663;49.120;9.730;2023-07-20T09:32:19;97881.38;;;25.49;51.38
19751;BME280;4663;49.120;9.730;2023-07-20T09:34:51;97887.47;;;24.96;53.50
19751;BME280;4663;49.120;9.730;2023-07-20T09:37:23;97882.91;;;26.58;50.96
19751;BME280;4663;49.120;9.730;2023-07-20T09:39:52;97873.72;;;27.22;50.54
19751;BME280;4663;49.120;9.730;2023-07-20T09:42:18;97863.84;;;27.16;49.38
19751;BME280;4663;49.120;9.730;2023-07-20T09:44:44;97855.84;;;27.14;48.43
19751;BME280;4663;49.120;9.730;2023-07-20T09:47:10;97854.13;;;26.92;48.94
19751;BME280;4663;49.120;9.730;2023-07-20T09:49:41;97866.22;;;28.21;48.68
19751;BME280;4663;49.120;9.730;2023-07-20T09:52:11;97851.81;;;28.40;47.41
19751;BME280;4663;49.120;9.730;2023-07-20T09:54:40;97849.03;;;29.36;46.42
19751;BME280;4663;49.120;9.730;2023-07-20T09:57:09;97860.97;;;28.25;48.08
19751;BME280;4663;49.120;9.730;2023-07-20T09:59:35;97844.75;;;28.79;46.09
19751;BME280;4663;49.120;9.730;2023-07-20T10:02:07;97844.97;;;28.22;47.12
19751;BME280;4663;49.120;9.730;2023-07-20T10:04:36;97833.81;;;28.63;45.92
19751;BME280;4663;49.120;9.730;2023-07-20T10:07:05;97827.59;;;28.37;45.81
19751;BME280;4663;49.120;9.730;2023-07-20T10:09:38;97836.19;;;28.15;46.33
19751;BME280;4663;49.120;9.730;2023-07-20T10:12:05;97828.31;;;27.51;46.18
19751;BME280;4663;49.120;9.730;2023-07-20T10:14:33;97824.16;;;27.01;46.39
19751;BME280;4663;49.120;9.730;2023-07-20T10:17:01;97819.47;;;26.91;46.82
19751;BME280;4663;49.120;9.730;2023-07-20T10:19:34;97835.44;;;27.88;46.91
19751;BME280;4663;49.120;9.730;2023-07-20T10:22:14;97805.16;;;28.54;44.12
19751;BME280;4663;49.120;9.730;2023-07-20T10:24:45;97803.88;;;28.36;43.89
19751;BME280;4663;49.120;9.730;2023-07-20T10:27:11;97821.44;;;27.22;46.15
19751;BME280;4663;49.120;9.730;2023-07-20T10:29:37;97829.91;;;27.98;46.39
19751;BME280;4663;49.120;9.730;2023-07-20T10:32:03;97831.06;;;27.56;46.79
19751;BME280;4663;49.120;9.730;2023-07-20T10:34:29;97837.06;;;27.99;46.43
19751;BME280;4663;49.120;9.730;2023-07-20T10:36:55;97834.91;;;27.65;46.63
19751;BME280;4663;49.120;9.730;2023-07-20T10:39:33;97833.00;;;27.45;46.69
19751;BME280;4663;49.120;9.730;2023-07-20T10:42:09;97826.63;;;27.03;46.82
19751;BME280;4663;49.120;9.730;2023-07-20T10:44:38;97807.41;;;27.29;45.94
19751;BME280;4663;49.120;9.730;2023-07-20T10:47:09;97821.16;;;27.55;46.00
19751;BME280;4663;49.120;9.730;2023-07-20T10:49:57;97818.28;;;28.12;45.31
19751;BME280;4663;49.120;9.730;2023-07-20T10:52:22;97813.84;;;28.16;44.53
19751;BME280;4663;49.120;9.730;2023-07-20T10:54:48;97792.50;;;27.66;44.41
19751;BME280;4663;49.120;9.730;2023-07-20T10:57:32;97799.63;;;27.93;45.27
19751;BME280;4663;49.120;9.730;2023-07-20T11:00:11;97793.03;;;27.89;44.14
19751;BME280;4663;49.120;9.730;2023-07-20T11:02:47;97809.59;;;27.73;45.21
19751;BME280;4663;49.120;9.730;2023-07-20T11:05:32;97823.03;;;26.87;47.53
19751;BME280;4663;49.120;9.730;2023-07-20T11:07:58;97805.66;;;26.55;47.47
19751;BME280;4663;49.120;9.730;2023-07-20T11:10:23;97819.47;;;27.12;47.12
19751;BME280;4663;49.120;9.730;2023-07-20T11:18:12;97792.41;;;26.52;47.01
19751;BME280;4663;49.120;9.730;2023-07-20T11:20:38;97779.09;;;26.07;46.28
19751;BME280;4663;49.120;9.730;2023-07-20T11:23:03;97781.22;;;26.74;45.68
19751;BME280;4663;49.120;9.730;2023-07-20T11:25:39;97789.22;;;27.33;46.44
19751;BME280;4663;49.120;9.730;2023-07-20T11:28:08;97773.22;;;26.62;45.45
19751;BME280;4663;49.120;9.730;2023-07-20T11:30:36;97786.91;;;26.46;45.56
19751;BME280;4663;49.120;9.730;2023-07-20T11:33:02;97806.41;;;26.45;47.48
19751;BME280;4663;49.120;9.730;2023-07-20T11:35:28;97804.03;;;26.85;46.92
19751;BME280;4663;49.120;9.730;2023-07-20T11:37:54;97782.91;;;26.06;47.46
19751;BME280;4663;49.120;9.730;2023-07-20T11:40:20;97775.94;;;25.39;47.18
19751;BME280;4663;49.120;9.730;2023-07-20T11:42:45;97795.09;;;26.31;47.50
19751;BME280;4663;49.120;9.730;2023-07-20T11:45:11;97768.66;;;26.14;45.97
19751;BME280;4663;49.120;9.730;2023-07-20T11:47:40;97779.75;;;26.45;46.31
19751;BME280;4663;49.120;9.730;2023-07-20T11:50:07;97774.19;;;26.25;46.00
19751;BME280;4663;49.120;9.730;2023-07-20T11:52:33;97788.00;;;25.87;46.90
19751;BME280;4663;49.120;9.730;2023-07-20T11:54:58;97761.97;;;25.13;46.02
19751;BME280;4663;49.120;9.730;2023-07-20T11:57:24;97752.47;;;26.18;44.47
19751;BME280;4663;49.120;9.730;2023-07-20T11:59:57;97753.84;;;26.15;44.47
19751;BME280;4663;49.120;9.730;2023-07-20T12:02:24;97744.72;;;26.04;44.63
19751;BME280;4663;49.120;9.730;2023-07-20T12:04:52;97745.09;;;26.34;44.45
19751;BME280;4663;49.120;9.730;2023-07-20T12:07:21;97740.78;;;26.64;43.48
19751;BME280;4663;49.120;9.730;2023-07-20T12:10:03;97744.91;;;26.62;43.81
19751;BME280;4663;49.120;9.730;2023-07-20T12:12:34;97755.38;;;27.06;43.65
19751;BME280;4663;49.120;9.730;2023-07-20T12:17:55;97727.78;;;26.28;43.72
19751;BME280;4663;49.120;9.730;2023-07-20T12:20:35;97714.03;;;25.64;43.44
19751;BME280;4663;49.120;9.730;2023-07-20T12:23:03;97739.06;;;26.42;43.90
19751;BME280;4663;49.120;9.730;2023-07-20T12:25:52;97740.50;;;26.87;43.25
19751;BME280;4663;49.120;9.730;2023-07-20T12:28:19;97724.00;;;26.66;42.42
19751;BME280;4663;49.120;9.730;2023-07-20T12:30:46;97711.06;;;26.77;41.68
19751;BME280;4663;49.120;9.730;2023-07-20T12:33:12;97722.03;;;26.51;42.35
19751;BME280;4663;49.120;9.730;2023-07-20T12:35:40;97715.41;;;26.36;41.86
19751;BME280;4663;49.120;9.730;2023-07-20T12:38:06;97726.88;;;26.17;43.75
19751;BME280;4663;49.120;9.730;2023-07-20T12:40:31;97718.78;;;27.01;42.44
19751;BME280;4663;49.120;9.730;2023-07-20T12:42:57;97710.81;;;27.20;41.81
19751;BME280;4663;49.120;9.730;2023-07-20T12:45:23;97697.56;;;26.49;41.37
19751;BME280;4663;49.120;9.730;2023-07-20T12:47:49;97703.09;;;26.54;41.64
19751;BME280;4663;49.120;9.730;2023-07-20T12:50:14;97722.63;;;27.10;42.38
19751;BME280;4663;49.120;9.730;2023-07-20T12:52:40;97710.06;;;27.91;41.87
19751;BME280;4663;49.120;9.730;2023-07-20T12:55:07;97692.31;;;27.46;40.95
19751;BME280;4663;49.120;9.730;2023-07-20T12:57:34;97694.44;;;27.76;41.30
19751;BME280;4663;49.120;9.730;2023-07-20T13:00:00;97698.75;;;27.97;41.26
19751;BME280;4663;49.120;9.730;2023-07-20T13:02:26;97703.25;;;27.67;42.21
19751;BME280;4663;49.120;9.730;2023-07-20T13:04:52;97704.47;;;28.06;42.17
19751;BME280;4663;49.120;9.730;2023-07-20T13:07:35;97687.41;;;26.96;42.00
19751;BME280;4663;49.120;9.730;2023-07-20T13:10:02;97699.81;;;27.15;42.72
19751;BME280;4663;49.120;9.730;2023-07-20T13:12:30;97677.50;;;26.43;42.60
19751;BME280;4663;49.120;9.730;2023-07-20T13:14:56;97694.03;;;27.21;42.02
19751;BME280;4663;49.120;9.730;2023-07-20T13:17:25;97705.03;;;27.27;42.50
19751;BME280;4663;49.120;9.730;2023-07-20T13:19:50;97711.34;;;27.27;43.13
19751;BME280;4663;49.120;9.730;2023-07-20T13:22:16;97705.88;;;28.09;42.71